Bennion, Utah
Current Conditions -  °F | °C
As of 12:53 PM on Tuesday 21 Oct 2014 (Local Time) from KSLC Reporting Station
Broken Clouds Broken Clouds  
Wind Chill: 61°   Ceiling: 7500
Heat Index: 61°   Visibility: 10mi
Dew Point: 36°   Wind: 23mph
Humidity: 39%   Direction: 310°NW
Pressure: 30.01"   Gusts: NA
Location:  40.6511°N, 112.018°W
Report Text: KSLC 211853Z 31020KT 10SM FEW050 BKN075TCU BKN100 BKN150 16/02 A3001 RMK AO2 SLP124 CB DSNT E-SE TCU NE AND NW T01610022
Loading
Personal Weather Stations






























Interactive Weather Map
Tropical Storm Tracking
New forecast layout! Learn more

10-Day Weather Forecast

Advertisements
Track Severe Weather on mobile